Brilliance Of The Seas — C6SJ5 — position and weather

sailwx.info

Track history (hours):
 
Tides and Currents Weather Stations Pressure Air Temp Water Temp Dewpoint Dewpoint Depression Visibility Wind Speed Wind Dir Waves Ship Positions

Brilliance Of The Seas

Operator: Royal Caribbean Cruises Ltd

Last reported at 2015-Jul-29 19:14 UTC. Time now 2015-Aug-01 07:43 UTC.
Position N 52°12' E 002°03'.

Type: Ship. MMSI: 311361000.

Date/timePositionNaut miles runAvg speedWind from/ knotsBaromVisibWave heightAir tempDewpointWater temp
2015-Jul-29 19:14N 52°12' E 002°03'1217.5
2015-Jul-29 18:34N 52°02' E 001°54'1414.1
2015-Jul-29 17:34N 51°50' E 001°42'1111.0
2015-Jul-29 16:34N 51°56' E 001°27'7 6.8
2015-Jul-29 15:33N 51°57' E 001°16'0 0.0
2015-Jul-29 14:33N 51°57' E 001°16'0 0.0
2015-Jul-29 13:33N 51°57' E 001°16'0 0.0
2015-Jul-29 12:33N 51°57' E 001°16'0 0.0
2015-Jul-29 11:33N 51°57' E 001°16'0 0.0
2015-Jul-29 10:33N 51°57' E 001°16'0 0.0
2015-Jul-29 09:33N 51°57' E 001°16'0 0.0
2015-Jul-29 08:33N 51°57' E 001°16'0 0.0
2015-Jul-29 07:33N 51°57' E 001°16'0 0.0
2015-Jul-29 06:33N 51°57' E 001°16'0 0.0
2015-Jul-29 05:33N 51°57' E 001°16'0 0.0
2015-Jul-29 04:33N 51°57' E 001°16'0 0.1
2015-Jul-29 03:34N 51°57' E 001°16'5 5.4
2015-Jul-29 02:34N 51°56' E 001°24'1211.6
2015-Jul-29 01:33N 51°51' E 001°41'1211.6
2015-Jul-29 00:34N 52°01' E 001°51'1414.2
2015-Jul-28 23:33N 52°11' E 002°07'44414.8
2015-Jul-27 17:33N 57°50' E 010°27'1111.6
2015-Jul-27 16:33N 57°45' E 010°46'12 1.3
2015-Jul-27 07:34N 57°39' E 011°06'2120.9
2015-Jul-27 06:33N 57°23' E 011°32'2323.4
2015-Jul-27 05:33N 57°01' E 011°44'2121.1
2015-Jul-27 04:33N 56°40' E 011°48'12617.9
2015-Jul-26 21:30N 54°36' E 011°01'1819.2
2015-Jul-26 20:33N 54°31' E 011°31'1919.1
2015-Jul-26 19:33N 54°26' E 012°03'7518.6
2015-Jul-26 15:33N 55°03' E 013°55'1919.2
2015-Jul-26 14:33N 55°16' E 014°19'2019.9
2015-Jul-26 13:33N 55°30' E 014°43'2019.8
2015-Jul-26 12:33N 55°40' E 015°14'12617.9
2015-Jul-26 05:32N 57°19' E 017°36'2119.9
2015-Jul-26 04:30N 57°39' E 017°46'101 7.7
2015-Jul-25 15:18N 59°19' E 018°09'1 1.7
2015-Jul-25 14:33N 59°19' E 018°06'0 0.0
2015-Jul-25 13:33N 59°19' E 018°06'0 0.0
2015-Jul-25 12:33N 59°19' E 018°06'0 0.0
2015-Jul-25 11:33N 59°19' E 018°06'0 0.0
2015-Jul-25 10:33N 59°19' E 018°06'0 0.0
2015-Jul-25 09:33N 59°19' E 018°06'0 0.0
2015-Jul-25 08:33N 59°19' E 018°06'0 0.0
2015-Jul-25 07:33N 59°19' E 018°06'0 0.0
2015-Jul-25 06:33N 59°19' E 018°06'1 1.2
2015-Jul-25 05:33N 59°19' E 018°08'11012.0
2015-Jul-24 20:20N 59°25' E 021°44'1819.9
2015-Jul-24 19:26N 59°27' E 022°20'3819.8
2015-Jul-24 17:32N 59°38' E 023°31'95 5.3
2015-Jul-23 23:33N 60°02' E 026°34'9713.8
2015-Jul-23 16:33N 59°58' E 029°48'1010.2
2015-Jul-23 15:33N 59°57' E 030°08'2 1.8
2015-Jul-23 14:31N 59°57' E 030°12'0 0.0
2015-Jul-23 13:31N 59°57' E 030°12'0 0.0
2015-Jul-23 12:31N 59°57' E 030°12'0 0.0
2015-Jul-23 11:31N 59°57' E 030°12'0 0.0
2015-Jul-23 10:31N 59°57' E 030°12'0 0.0
2015-Jul-23 09:31N 59°57' E 030°12'0 0.0
2015-Jul-23 08:31N 59°57' E 030°12'0 0.0
2015-Jul-23 07:31N 59°57' E 030°12'0 0.0
2015-Jul-23 06:31N 59°57' E 030°12'0 0.0
2015-Jul-23 05:28N 59°57' E 030°12'0 0.0
2015-Jul-23 04:31N 59°57' E 030°12'0 0.0
2015-Jul-23 03:31N 59°57' E 030°12'0 0.0
2015-Jul-23 02:31N 59°57' E 030°12'0 0.0
2015-Jul-23 01:31N 59°57' E 030°12'0 0.0
2015-Jul-23 00:31N 59°57' E 030°12'0 0.0
2015-Jul-22 23:31N 59°57' E 030°12'0 0.0
2015-Jul-22 22:31N 59°57' E 030°12'0 0.0
2015-Jul-22 21:31N 59°57' E 030°12'0 0.0
2015-Jul-22 20:31N 59°57' E 030°12'0 0.0
2015-Jul-22 19:31N 59°57' E 030°12'0 0.0
2015-Jul-22 18:31N 59°57' E 030°12'0 0.0
2015-Jul-22 17:31N 59°57' E 030°12'0 0.0
2015-Jul-22 16:31N 59°57' E 030°12'0 0.0
2015-Jul-22 15:28N 59°57' E 030°12'0 0.0
2015-Jul-22 14:31N 59°57' E 030°12'0 0.0
2015-Jul-22 13:31N 59°57' E 030°12'0 0.0
2015-Jul-22 12:31N 59°57' E 030°12'0 0.0
2015-Jul-22 11:31N 59°57' E 030°12'0 0.0
2015-Jul-22 10:31N 59°57' E 030°12'0 0.0
2015-Jul-22 09:31N 59°57' E 030°12'0 0.0
2015-Jul-22 08:31N 59°57' E 030°12'0 0.0
2015-Jul-22 07:28N 59°57' E 030°12'0 0.0
2015-Jul-22 06:31N 59°57' E 030°12'0 0.0
2015-Jul-22 05:31N 59°57' E 030°12'0 0.0
2015-Jul-22 04:31N 59°57' E 030°12'0 0.0
2015-Jul-22 03:31N 59°57' E 030°12'6 6.4
2015-Jul-22 02:33N 59°55' E 029°59'1111.3
2015-Jul-22 01:33N 59°60' E 029°39'7113.7
2015-Jul-21 20:22N 60°02' E 027°18'1415.3
2015-Jul-21 19:26N 59°59' E 026°50'6215.9
2015-Jul-21 15:33N 59°43' E 024°51'1313.7
2015-Jul-21 14:34N 59°29' E 024°46'3 0.7
2015-Jul-21 11:09N 59°27' E 024°46'0 0.0
2015-Jul-21 07:09N 59°27' E 024°46'0 0.0
2015-Jul-21 06:33N 59°27' E 024°46'0 0.0
2015-Jul-21 05:33N 59°27' E 024°46'9 8.8
2015-Jul-21 04:33N 59°30' E 024°29'1817.5
2015-Jul-21 03:33N 59°29' E 023°55'2218.5
2015-Jul-21 02:22N 59°29' E 023°12'1618.7
2015-Jul-21 01:31N 59°24' E 022°42'2118.9
2015-Jul-21 00:23N 59°12' E 022°08'31820.1
2015-Jul-20 08:33N 55°30' E 015°05'2020.0
2015-Jul-20 07:33N 55°20' E 014°35'2020.3
2015-Jul-20 06:33N 55°04' E 014°13'7819.5
2015-Jul-20 02:32N 54°27' E 012°14'1818.3
2015-Jul-20 01:33N 54°25' E 011°43'2020.1
2015-Jul-20 00:33N 54°34' E 011°13'  
Track history (hours):
 
Tides and Currents Weather Stations Pressure Air Temp Water Temp Dewpoint Dewpoint Depression Visibility Wind Speed Wind Dir Waves Ship Positions

Brilliance Of The Seas

Operator: Royal Caribbean Cruises Ltd

Last reported at 2015-Jul-29 19:14 UTC. Time now 2015-Aug-01 07:43 UTC.
Position N 52°12' E 002°03'.

Type: Ship. MMSI: 311361000.

Date/timePositionNaut miles runAvg speedWind from/ knotsBaromVisibWave heightAir tempDewpointWater temp
2015-Jul-29 19:14N 52°12' E 002°03'1217.5
2015-Jul-29 18:34N 52°02' E 001°54'1414.1
2015-Jul-29 17:34N 51°50' E 001°42'1111.0
2015-Jul-29 16:34N 51°56' E 001°27'7 6.8
2015-Jul-29 15:33N 51°57' E 001°16'0 0.0
2015-Jul-29 14:33N 51°57' E 001°16'0 0.0
2015-Jul-29 13:33N 51°57' E 001°16'0 0.0
2015-Jul-29 12:33N 51°57' E 001°16'0 0.0
2015-Jul-29 11:33N 51°57' E 001°16'0 0.0
2015-Jul-29 10:33N 51°57' E 001°16'0 0.0
2015-Jul-29 09:33N 51°57' E 001°16'0 0.0
2015-Jul-29 08:33N 51°57' E 001°16'0 0.0
2015-Jul-29 07:33N 51°57' E 001°16'0 0.0
2015-Jul-29 06:33N 51°57' E 001°16'0 0.0
2015-Jul-29 05:33N 51°57' E 001°16'0 0.0
2015-Jul-29 04:33N 51°57' E 001°16'0 0.1
2015-Jul-29 03:34N 51°57' E 001°16'5 5.4
2015-Jul-29 02:34N 51°56' E 001°24'1211.6
2015-Jul-29 01:33N 51°51' E 001°41'1211.6
2015-Jul-29 00:34N 52°01' E 001°51'1414.2
2015-Jul-28 23:33N 52°11' E 002°07'44414.8
2015-Jul-27 17:33N 57°50' E 010°27'1111.6
2015-Jul-27 16:33N 57°45' E 010°46'12 1.3
2015-Jul-27 07:34N 57°39' E 011°06'2120.9
2015-Jul-27 06:33N 57°23' E 011°32'2323.4
2015-Jul-27 05:33N 57°01' E 011°44'2121.1
2015-Jul-27 04:33N 56°40' E 011°48'12617.9
2015-Jul-26 21:30N 54°36' E 011°01'1819.2
2015-Jul-26 20:33N 54°31' E 011°31'1919.1
2015-Jul-26 19:33N 54°26' E 012°03'7518.6
2015-Jul-26 15:33N 55°03' E 013°55'1919.2
2015-Jul-26 14:33N 55°16' E 014°19'2019.9
2015-Jul-26 13:33N 55°30' E 014°43'2019.8
2015-Jul-26 12:33N 55°40' E 015°14'12617.9
2015-Jul-26 05:32N 57°19' E 017°36'2119.9
2015-Jul-26 04:30N 57°39' E 017°46'101 7.7
2015-Jul-25 15:18N 59°19' E 018°09'1 1.7
2015-Jul-25 14:33N 59°19' E 018°06'0 0.0
2015-Jul-25 13:33N 59°19' E 018°06'0 0.0
2015-Jul-25 12:33N 59°19' E 018°06'0 0.0
2015-Jul-25 11:33N 59°19' E 018°06'0 0.0
2015-Jul-25 10:33N 59°19' E 018°06'0 0.0
2015-Jul-25 09:33N 59°19' E 018°06'0 0.0
2015-Jul-25 08:33N 59°19' E 018°06'0 0.0
2015-Jul-25 07:33N 59°19' E 018°06'0 0.0
2015-Jul-25 06:33N 59°19' E 018°06'1 1.2
2015-Jul-25 05:33N 59°19' E 018°08'11012.0
2015-Jul-24 20:20N 59°25' E 021°44'1819.9
2015-Jul-24 19:26N 59°27' E 022°20'3819.8
2015-Jul-24 17:32N 59°38' E 023°31'95 5.3
2015-Jul-23 23:33N 60°02' E 026°34'9713.8
2015-Jul-23 16:33N 59°58' E 029°48'1010.2
2015-Jul-23 15:33N 59°57' E 030°08'2 1.8
2015-Jul-23 14:31N 59°57' E 030°12'0 0.0
2015-Jul-23 13:31N 59°57' E 030°12'0 0.0
2015-Jul-23 12:31N 59°57' E 030°12'0 0.0
2015-Jul-23 11:31N 59°57' E 030°12'0 0.0
2015-Jul-23 10:31N 59°57' E 030°12'0 0.0
2015-Jul-23 09:31N 59°57' E 030°12'0 0.0
2015-Jul-23 08:31N 59°57' E 030°12'0 0.0
2015-Jul-23 07:31N 59°57' E 030°12'0 0.0
2015-Jul-23 06:31N 59°57' E 030°12'0 0.0
2015-Jul-23 05:28N 59°57' E 030°12'0 0.0
2015-Jul-23 04:31N 59°57' E 030°12'0 0.0
2015-Jul-23 03:31N 59°57' E 030°12'0 0.0
2015-Jul-23 02:31N 59°57' E 030°12'0 0.0
2015-Jul-23 01:31N 59°57' E 030°12'0 0.0
2015-Jul-23 00:31N 59°57' E 030°12'0 0.0
2015-Jul-22 23:31N 59°57' E 030°12'0 0.0
2015-Jul-22 22:31N 59°57' E 030°12'0 0.0
2015-Jul-22 21:31N 59°57' E 030°12'0 0.0
2015-Jul-22 20:31N 59°57' E 030°12'0 0.0
2015-Jul-22 19:31N 59°57' E 030°12'0 0.0
2015-Jul-22 18:31N 59°57' E 030°12'0 0.0
2015-Jul-22 17:31N 59°57' E 030°12'0 0.0
2015-Jul-22 16:31N 59°57' E 030°12'0 0.0
2015-Jul-22 15:28N 59°57' E 030°12'0 0.0
2015-Jul-22 14:31N 59°57' E 030°12'0 0.0
2015-Jul-22 13:31N 59°57' E 030°12'0 0.0
2015-Jul-22 12:31N 59°57' E 030°12'0 0.0
2015-Jul-22 11:31N 59°57' E 030°12'0 0.0
2015-Jul-22 10:31N 59°57' E 030°12'0 0.0
2015-Jul-22 09:31N 59°57' E 030°12'0 0.0
2015-Jul-22 08:31N 59°57' E 030°12'0 0.0
2015-Jul-22 07:28N 59°57' E 030°12'0 0.0
2015-Jul-22 06:31N 59°57' E 030°12'0 0.0
2015-Jul-22 05:31N 59°57' E 030°12'0 0.0
2015-Jul-22 04:31N 59°57' E 030°12'0 0.0
2015-Jul-22 03:31N 59°57' E 030°12'6 6.4
2015-Jul-22 02:33N 59°55' E 029°59'1111.3
2015-Jul-22 01:33N 59°60' E 029°39'7113.7
2015-Jul-21 20:22N 60°02' E 027°18'1415.3
2015-Jul-21 19:26N 59°59' E 026°50'6215.9
2015-Jul-21 15:33N 59°43' E 024°51'1313.7
2015-Jul-21 14:34N 59°29' E 024°46'3 0.7
2015-Jul-21 11:09N 59°27' E 024°46'0 0.0
2015-Jul-21 07:09N 59°27' E 024°46'0 0.0
2015-Jul-21 06:33N 59°27' E 024°46'0 0.0
2015-Jul-21 05:33N 59°27' E 024°46'9 8.8
2015-Jul-21 04:33N 59°30' E 024°29'1817.5
2015-Jul-21 03:33N 59°29' E 023°55'2218.5
2015-Jul-21 02:22N 59°29' E 023°12'1618.7
2015-Jul-21 01:31N 59°24' E 022°42'2118.9
2015-Jul-21 00:23N 59°12' E 022°08'31820.1
2015-Jul-20 08:33N 55°30' E 015°05'2020.0
2015-Jul-20 07:33N 55°20' E 014°35'2020.3
2015-Jul-20 06:33N 55°04' E 014°13'7819.5
2015-Jul-20 02:32N 54°27' E 012°14'1818.3
2015-Jul-20 01:33N 54°25' E 011°43'2020.1
2015-Jul-20 00:33N 54°34' E 011°13'  

Dump ship's entire track history